Time;durP1;ratioP1;P1;durP2;ratioP2;P2;SDS_P1;SDS_P2;PMS_P1;PMS_P2;Temp;Humidity;BMP_temperature;BMP_pressure;BME280_temperature;BME280_humidity;BME280_pressure;Samples;Min_cycle;Max_cycle;Signal;HPM_P1;HPM_P2
2021/08/24 00:01:52;;;;;;;7.97;3.40;;;15.60;99.90;;;;;;5042105;28;20029;-87
2021/08/24 00:04:18;;;;;;;5.25;3.33;;;15.70;99.90;;;;;;5041867;28;20031;-87
2021/08/24 00:06:43;;;;;;;5.60;3.50;;;15.70;99.90;;;;;;5055529;28;20573;-86
2021/08/24 00:09:09;;;;;;;6.45;3.75;;;15.60;99.90;;;;;;5061393;28;20496;-86
2021/08/24 00:11:35;;;;;;;5.40;2.90;;;15.70;99.90;;;;;;5067199;28;20017;-86
2021/08/24 00:14:03;;;;;;;6.75;2.88;;;15.70;99.90;;;;;;5066859;28;20410;-86
2021/08/24 00:16:29;;;;;;;6.68;2.90;;;15.70;99.90;;;;;;5056498;28;20056;-86
2021/08/24 00:18:54;;;;;;;5.43;3.30;;;15.60;99.90;;;;;;5058213;28;20025;-87
2021/08/24 00:21:20;;;;;;;6.03;3.47;;;15.60;99.90;;;;;;5042015;28;20040;-86
2021/08/24 00:23:46;;;;;;;6.95;2.90;;;15.60;99.90;;;;;;5066859;28;20059;-85
2021/08/24 00:26:11;;;;;;;6.93;3.35;;;15.70;99.90;;;;;;5064138;28;20029;-85
2021/08/24 00:28:37;;;;;;;6.85;3.53;;;15.60;99.90;;;;;;5047768;28;20049;-87
2021/08/24 00:31:03;;;;;;;6.90;3.85;;;15.60;99.90;;;;;;5065148;28;20033;-86
2021/08/24 00:33:28;;;;;;;6.78;4.22;;;15.60;99.90;;;;;;5047232;28;20029;-86
2021/08/24 00:35:54;;;;;;;8.38;4.00;;;15.60;99.90;;;;;;5044745;28;20025;-86
2021/08/24 00:38:23;;;;;;;7.68;4.10;;;15.60;99.90;;;;;;5025740;28;20120;-87
2021/08/24 00:40:59;;;;;;;6.25;4.28;;;15.60;99.90;;;;;;5037827;28;20025;-86
2021/08/24 00:43:27;;;;;;;6.75;4.20;;;15.60;99.90;;;;;;5051640;28;20025;-86
2021/08/24 00:45:57;;;;;;;7.75;4.82;;;15.60;99.90;;;;;;5062877;28;20017;-86
2021/08/24 00:48:29;;;;;;;7.40;4.05;;;15.60;99.90;;;;;;5064546;28;20434;-87
2021/08/24 00:50:55;;;;;;;7.45;4.43;;;15.60;99.90;;;;;;5055061;28;20032;-87
2021/08/24 00:53:26;;;;;;;6.07;3.92;;;15.60;99.90;;;;;;5045878;28;20041;-86
2021/08/24 00:55:56;;;;;;;8.48;5.18;;;15.60;99.90;;;;;;5047684;28;20112;-85
2021/08/24 00:58:22;;;;;;;7.75;5.00;;;15.60;99.90;;;;;;5046954;28;20088;-86
2021/08/24 01:00:48;;;;;;;9.23;4.88;;;15.60;99.90;;;;;;5059643;28;20021;-86
2021/08/24 01:03:19;;;;;;;8.75;5.25;;;15.60;99.90;;;;;;5055522;28;20021;-86
2021/08/24 01:05:48;;;;;;;8.63;4.97;;;15.50;99.90;;;;;;5054880;28;20024;-88
2021/08/24 01:08:54;;;;;;;8.13;4.82;;;15.60;99.90;;;;;;5045030;28;20516;-86
2021/08/24 01:11:32;;;;;;;8.32;5.10;;;15.50;99.90;;;;;;5004340;28;20029;-86
2021/08/24 01:14:21;;;;;;;8.45;5.10;;;15.50;99.90;;;;;;5025148;28;20091;-86
2021/08/24 01:17:00;;;;;;;7.90;4.95;;;15.40;99.90;;;;;;5026109;28;20029;-86
2021/08/24 01:19:37;;;;;;;8.32;5.25;;;15.40;99.90;;;;;;5064592;28;20036;-86
2021/08/24 01:22:25;;;;;;;8.98;5.15;;;15.40;99.90;;;;;;5039925;28;20096;-86
2021/08/24 01:25:17;;;;;;;6.88;4.35;;;15.30;99.90;;;;;;5036318;28;20050;-86
2021/08/24 01:28:34;;;;;;;7.00;3.83;;;15.30;99.90;;;;;;5067490;28;20021;-87
2021/08/24 01:31:48;;;;;;;6.15;3.30;;;15.30;99.90;;;;;;5034280;28;20033;-86
2021/08/24 01:34:38;;;;;;;6.70;3.50;;;15.30;99.90;;;;;;5046102;28;20029;-86
2021/08/24 01:37:16;;;;;;;6.93;3.67;;;15.20;99.90;;;;;;5028893;28;20093;-87
2021/08/24 01:39:49;;;;;;;6.93;3.45;;;15.10;99.90;;;;;;5045194;28;20030;-86
2021/08/24 01:42:23;;;;;;;5.63;3.33;;;15.20;99.90;;;;;;5038830;28;20036;-86
2021/08/24 01:44:52;;;;;;;5.75;3.30;;;15.10;99.90;;;;;;5046839;28;20029;-87
2021/08/24 01:47:20;;;;;;;6.75;3.20;;;15.10;99.90;;;;;;5026994;28;20025;-86
2021/08/24 01:50:09;;;;;;;5.28;3.00;;;15.10;99.90;;;;;;5028516;28;20123;-86
2021/08/24 01:52:57;;;;;;;4.63;2.72;;;15.10;99.90;;;;;;5020557;28;20070;-86
2021/08/24 01:55:26;;;;;;;8.98;2.58;;;15.00;99.90;;;;;;5046087;28;20385;-87
2021/08/24 01:58:03;;;;;;;5.22;2.75;;;15.00;99.90;;;;;;5061253;28;20036;-86
2021/08/24 02:00:32;;;;;;;4.78;2.63;;;15.00;99.90;;;;;;5066480;28;20481;-86
2021/08/24 02:03:03;;;;;;;7.68;3.00;;;14.90;99.90;;;;;;5067179;28;20032;-85
2021/08/24 02:05:36;;;;;;;5.63;2.67;;;14.90;99.90;;;;;;5046639;28;20018;-85
2021/08/24 02:08:08;;;;;;;5.68;2.80;;;14.90;99.90;;;;;;5055151;28;20112;-86
2021/08/24 02:10:35;;;;;;;5.65;2.88;;;14.90;99.90;;;;;;5064623;28;20047;-86
2021/08/24 02:13:02;;;;;;;6.25;2.97;;;14.90;99.90;;;;;;5066279;28;20059;-85
2021/08/24 02:15:36;;;;;;;6.07;2.95;;;14.80;99.90;;;;;;5065246;28;20021;-85
2021/08/24 02:18:02;;;;;;;5.93;2.95;;;14.80;99.90;;;;;;5058952;28;20058;-86
2021/08/24 02:20:42;;;;;;;6.50;3.15;;;14.80;99.90;;;;;;5062642;28;20022;-86
2021/08/24 02:23:13;;;;;;;5.35;2.40;;;14.80;99.90;;;;;;5070870;28;20017;-85
2021/08/24 02:25:41;;;;;;;;;;;14.70;99.90;;;;;;5069041;28;20028;-86
2021/08/24 02:28:20;;;;;;;5.30;2.78;;;14.70;99.90;;;;;;5070725;28;19905;-86
2021/08/24 02:30:51;;;;;;;4.80;2.65;;;14.70;99.90;;;;;;5068622;28;20021;-86
2021/08/24 02:33:19;;;;;;;4.72;2.42;;;14.70;99.90;;;;;;5070733;28;20024;-85
2021/08/24 02:35:56;;;;;;;5.55;2.92;;;14.70;99.90;;;;;;5069721;28;20063;-85
2021/08/24 02:38:34;;;;;;;5.57;2.90;;;14.60;99.90;;;;;;5069401;28;20029;-86
2021/08/24 02:41:07;;;;;;;5.40;2.67;;;14.60;99.90;;;;;;5057431;28;20029;-86
2021/08/24 02:43:45;;;;;;;6.90;2.72;;;14.60;99.90;;;;;;5041266;28;20033;-86
2021/08/24 02:46:23;;;;;;;5.88;2.75;;;14.50;99.90;;;;;;5050112;28;20028;-86
2021/08/24 02:48:59;;;;;;;5.13;2.75;;;14.50;99.90;;;;;;5059251;28;20025;-86
2021/08/24 02:51:26;;;;;;;4.60;2.63;;;14.40;99.90;;;;;;5067329;28;20028;-85
2021/08/24 02:54:27;;;;;;;4.90;2.42;;;14.50;99.90;;;;;;5070973;28;20032;-85
2021/08/24 02:56:54;;;;;;;5.47;2.53;;;14.40;99.90;;;;;;5036101;28;20091;-85
2021/08/24 02:59:19;;;;;;;6.93;2.55;;;14.50;99.90;;;;;;5047262;28;20040;-85
2021/08/24 03:01:45;;;;;;;7.90;2.70;;;14.20;99.90;;;;;;5053434;28;20025;-84
2021/08/24 03:04:12;;;;;;;5.75;2.70;;;14.30;99.90;;;;;;5060956;28;20267;-86
2021/08/24 03:06:45;;;;;;;4.25;2.42;;;14.20;99.90;;;;;;5046508;28;20029;-85
2021/08/24 03:09:13;;;;;;;5.97;2.72;;;14.20;99.90;;;;;;5037476;28;20021;-86
2021/08/24 03:11:43;;;;;;;5.03;2.30;;;14.20;99.90;;;;;;5046635;28;20501;-86
2021/08/24 03:14:18;;;;;;;4.07;2.17;;;14.20;99.90;;;;;;5031854;28;20029;-87
2021/08/24 03:16:51;;;;;;;4.35;2.30;;;14.20;99.90;;;;;;5049030;28;20041;-87
2021/08/24 03:19:22;;;;;;;5.47;2.55;;;14.10;99.90;;;;;;5033149;28;20390;-85
2021/08/24 03:21:49;;;;;;;5.20;2.80;;;14.00;99.90;;;;;;5068726;28;20020;-86
2021/08/24 03:24:18;;;;;;;6.97;2.22;;;14.00;99.90;;;;;;5029546;28;20036;-86
2021/08/24 03:26:46;;;;;;;5.03;2.80;;;14.00;99.90;;;;;;5032662;28;20517;-85
2021/08/24 03:29:17;;;;;;;4.90;2.40;;;13.90;99.90;;;;;;5048269;28;20025;-85
2021/08/24 03:31:47;;;;;;;5.65;2.67;;;13.90;99.90;;;;;;5068148;28;20096;-85
2021/08/24 03:34:12;;;;;;;6.18;3.00;;;13.90;99.90;;;;;;5070410;28;20057;-88
2021/08/24 03:36:38;;;;;;;6.97;2.92;;;13.80;99.90;;;;;;5071202;28;20059;-86
2021/08/24 03:39:04;;;;;;;6.32;2.95;;;13.80;99.90;;;;;;5050820;28;20029;-86
2021/08/24 03:41:30;;;;;;;5.57;2.97;;;13.70;99.90;;;;;;5042411;28;20060;-86
2021/08/24 03:43:55;;;;;;;5.25;2.80;;;13.70;99.90;;;;;;5057675;28;20093;-86
2021/08/24 03:46:21;;;;;;;6.30;2.97;;;13.70;99.90;;;;;;5067123;28;20037;-84
2021/08/24 03:48:47;;;;;;;5.35;3.08;;;13.70;99.90;;;;;;5069159;28;20021;-85
2021/08/24 03:51:12;;;;;;;7.10;3.42;;;13.70;99.90;;;;;;5069745;28;20044;-86
2021/08/24 03:53:38;;;;;;;6.93;3.15;;;13.70;99.90;;;;;;5070750;28;20285;-85
2021/08/24 03:56:06;;;;;;;5.97;3.15;;;13.70;99.90;;;;;;5071373;28;20033;-85
2021/08/24 03:58:32;;;;;;;6.28;3.17;;;13.70;99.90;;;;;;5071568;28;20044;-86
2021/08/24 04:00:57;;;;;;;5.80;3.15;;;13.60;99.90;;;;;;5072113;28;20114;-86
2021/08/24 04:03:23;;;;;;;7.95;2.90;;;13.70;99.90;;;;;;5071196;28;20165;-85
2021/08/24 04:05:56;;;;;;;7.93;3.20;;;13.70;99.90;;;;;;5066035;28;20032;-85
2021/08/24 04:08:22;;;;;;;7.00;3.42;;;13.60;99.90;;;;;;5051998;28;20021;-86
2021/08/24 04:10:47;;;;;;;9.85;3.15;;;13.60;99.90;;;;;;5043004;28;20025;-86
2021/08/24 04:13:13;;;;;;;7.43;3.47;;;13.50;99.90;;;;;;5044470;28;20030;-87
2021/08/24 04:15:39;;;;;;;6.03;3.33;;;13.50;99.90;;;;;;5037308;28;20095;-86
2021/08/24 04:18:04;;;;;;;6.85;3.28;;;13.50;99.90;;;;;;5031695;28;20474;-86
2021/08/24 04:20:30;;;;;;;7.75;3.10;;;13.40;99.90;;;;;;5047477;28;20037;-87
2021/08/24 04:22:56;;;;;;;12.07;3.80;;;13.30;99.90;;;;;;5050519;28;20037;-87
2021/08/24 04:25:21;;;;;;;5.78;3.80;;;13.30;99.90;;;;;;5068505;28;20040;-88
2021/08/24 04:27:47;;;;;;;7.10;3.97;;;13.30;99.90;;;;;;5056569;28;20255;-88
2021/08/24 04:30:13;;;;;;;8.05;3.80;;;13.20;99.90;;;;;;5061080;28;20025;-87
2021/08/24 04:32:43;;;;;;;9.68;3.97;;;13.20;99.90;;;;;;5055166;28;20044;-87
2021/08/24 04:35:09;;;;;;;7.75;3.83;;;13.20;99.90;;;;;;5043340;28;20186;-87
2021/08/24 04:37:35;;;;;;;6.60;3.97;;;13.10;99.90;;;;;;5037118;28;20021;-87
2021/08/24 04:40:00;;;;;;;7.05;3.72;;;13.10;99.90;;;;;;5042102;28;20580;-87
2021/08/24 04:42:26;;;;;;;5.90;3.40;;;13.10;99.90;;;;;;5045798;28;20037;-86
2021/08/24 04:44:51;;;;;;;5.97;3.60;;;13.10;99.90;;;;;;5038589;28;20124;-88
2021/08/24 04:47:17;;;;;;;6.90;3.53;;;13.10;99.90;;;;;;5040531;28;20043;-87
2021/08/24 04:49:43;;;;;;;8.02;3.33;;;13.10;99.90;;;;;;5040906;28;20022;-87
2021/08/24 04:52:08;;;;;;;7.25;3.45;;;13.10;99.90;;;;;;5049192;28;20037;-86
2021/08/24 04:54:34;;;;;;;8.10;3.55;;;13.10;99.90;;;;;;5048350;28;20139;-86
2021/08/24 04:57:02;;;;;;;7.93;3.60;;;13.00;99.90;;;;;;5059800;28;20087;-86
2021/08/24 04:59:28;;;;;;;6.63;3.60;;;13.10;99.90;;;;;;5068876;28;20055;-86
2021/08/24 05:01:54;;;;;;;6.10;3.15;;;13.10;99.90;;;;;;5035107;28;20025;-86
2021/08/24 05:04:19;;;;;;;7.40;3.60;;;13.20;99.90;;;;;;5049999;28;20151;-86
2021/08/24 05:06:45;;;;;;;8.10;3.58;;;13.20;99.90;;;;;;5039612;22;20471;-81
2021/08/24 05:09:10;;;;;;;6.18;3.30;;;13.20;99.90;;;;;;5012809;28;20034;-81
2021/08/24 05:11:36;;;;;;;9.30;3.45;;;13.30;99.90;;;;;;4995316;28;20109;-82
2021/08/24 05:14:02;;;;;;;6.43;2.90;;;13.30;99.90;;;;;;5013120;28;20034;-82
2021/08/24 05:16:27;;;;;;;7.47;3.13;;;13.40;99.90;;;;;;5014182;28;20057;-82
2021/08/24 05:18:53;;;;;;;6.03;3.13;;;13.40;99.90;;;;;;5014261;28;20364;-81
2021/08/24 05:21:18;;;;;;;7.70;2.92;;;13.40;99.90;;;;;;5014671;28;20033;-82
2021/08/24 05:23:45;;;;;;;6.72;3.30;;;13.50;99.90;;;;;;5014522;28;20038;-82
2021/08/24 05:26:17;;;;;;;8.73;3.13;;;13.50;99.90;;;;;;5005505;28;20054;-81
2021/08/24 05:28:43;;;;;;;5.88;3.20;;;13.60;99.90;;;;;;4994906;28;20084;-82
2021/08/24 05:31:09;;;;;;;6.43;3.33;;;13.60;99.90;;;;;;5002137;28;20093;-82
2021/08/24 05:33:35;;;;;;;5.13;3.10;;;13.60;99.90;;;;;;5012207;28;20029;-82
2021/08/24 05:36:01;;;;;;;6.35;3.22;;;13.70;99.90;;;;;;5014422;28;20026;-82
2021/08/24 05:38:29;;;;;;;6.10;2.95;;;13.60;99.90;;;;;;5006594;28;20093;-82
2021/08/24 05:40:55;;;;;;;6.97;3.50;;;13.70;99.90;;;;;;5005680;28;20029;-82
2021/08/24 05:43:22;;;;;;;6.22;3.05;;;13.70;99.90;;;;;;5013964;28;20095;-82
2021/08/24 05:46:01;;;;;;;6.68;3.25;;;13.70;99.90;;;;;;5013139;28;20022;-82
2021/08/24 05:48:27;;;;;;;6.65;2.97;;;13.80;99.90;;;;;;5025976;28;20390;-82
2021/08/24 05:50:53;;;;;;;7.57;3.33;;;13.90;99.90;;;;;;5014578;28;20030;-82
2021/08/24 05:53:19;;;;;;;6.10;3.45;;;13.90;99.90;;;;;;5012656;28;20077;-82
2021/08/24 05:55:44;;;;;;;6.00;3.22;;;14.00;99.90;;;;;;5013928;28;20022;-81
2021/08/24 05:58:10;;;;;;;7.22;3.40;;;13.90;99.90;;;;;;5013586;28;20053;-82
2021/08/24 06:00:37;;;;;;;6.90;2.88;;;14.00;99.90;;;;;;5014453;28;20021;-82
2021/08/24 06:03:03;;;;;;;6.10;3.20;;;14.00;99.90;;;;;;5013471;28;20018;-82
2021/08/24 06:05:28;;;;;;;5.38;3.10;;;14.00;99.90;;;;;;5033368;28;20037;-81
2021/08/24 06:07:54;;;;;;;5.63;3.30;;;14.00;99.90;;;;;;5033418;28;20037;-81
2021/08/24 06:10:20;;;;;;;6.85;3.30;;;14.00;99.90;;;;;;5034105;28;20378;-81
2021/08/24 06:12:45;;;;;;;5.82;3.00;;;14.00;99.90;;;;;;4978847;28;20030;-82
2021/08/24 06:15:11;;;;;;;6.47;3.20;;;14.00;99.90;;;;;;4994716;28;20093;-82
2021/08/24 06:17:37;;;;;;;5.95;3.30;;;14.00;99.90;;;;;;4992781;28;20027;-82
2021/08/24 06:20:04;;;;;;;8.77;3.47;;;14.00;99.90;;;;;;5011308;28;20037;-81
2021/08/24 06:22:29;;;;;;;9.68;3.50;;;14.00;99.90;;;;;;5015145;28;20022;-82
2021/08/24 06:24:55;;;;;;;6.80;3.38;;;14.10;99.90;;;;;;5013554;28;20096;-82
2021/08/24 06:27:21;;;;;;;7.07;3.47;;;14.10;99.90;;;;;;5014544;28;20022;-81
2021/08/24 06:29:47;;;;;;;8.07;3.97;;;14.10;99.90;;;;;;5014486;28;20544;-81
2021/08/24 06:32:27;;;;;;;8.52;4.05;;;14.20;99.90;;;;;;5014632;28;20033;-82
2021/08/24 06:34:53;;;;;;;6.90;3.58;;;14.20;99.90;;;;;;5013626;28;20038;-82
2021/08/24 06:37:19;;;;;;;10.70;4.13;;;14.20;99.90;;;;;;5013927;28;20493;-82
2021/08/24 06:39:44;;;;;;;7.10;3.75;;;14.30;99.90;;;;;;5014534;28;20026;-82
2021/08/24 06:42:10;;;;;;;7.45;3.50;;;14.30;99.90;;;;;;5013203;28;20026;-82
2021/08/24 06:44:35;;;;;;;5.13;3.13;;;14.50;99.90;;;;;;5012068;28;20105;-82
2021/08/24 06:47:01;;;;;;;12.38;3.78;;;14.50;99.90;;;;;;4995200;28;20081;-82
2021/08/24 06:49:26;;;;;;;7.95;3.78;;;14.50;99.90;;;;;;5003250;28;20026;-82
2021/08/24 06:51:52;;;;;;;8.63;3.78;;;14.50;99.90;;;;;;5012958;28;20025;-82
2021/08/24 06:54:18;;;;;;;8.32;3.28;;;14.50;99.90;;;;;;5012905;28;20093;-82
2021/08/24 06:56:43;;;;;;;6.95;3.30;;;14.50;99.90;;;;;;5014400;28;20030;-83
2021/08/24 06:59:09;;;;;;;7.75;3.40;;;14.50;99.90;;;;;;4981821;28;20034;-82
2021/08/24 07:01:37;;;;;;;6.10;3.10;;;14.50;99.90;;;;;;4997720;28;20475;-82
2021/08/24 07:04:03;;;;;;;5.78;3.40;;;14.50;99.90;;;;;;5013364;28;20037;-81
2021/08/24 07:06:29;;;;;;;7.82;3.67;;;14.60;99.90;;;;;;5017781;28;20045;-82
2021/08/24 07:08:56;;;;;;;7.20;3.35;;;14.60;99.90;;;;;;5014374;28;20029;-81
2021/08/24 07:11:26;;;;;;;6.40;3.05;;;14.60;99.90;;;;;;5013149;28;20022;-82
2021/08/24 07:13:54;;;;;;;11.63;3.50;;;14.80;99.90;;;;;;5009444;28;20124;-83
2021/08/24 07:16:19;;;;;;;6.40;3.58;;;14.80;99.90;;;;;;4999288;28;20105;-83
2021/08/24 07:18:45;;;;;;;7.45;2.95;;;14.90;99.90;;;;;;5004379;28;20108;-83
2021/08/24 07:21:15;;;;;;;6.30;3.20;;;14.90;99.90;;;;;;5017591;28;20029;-82
2021/08/24 07:23:42;;;;;;;8.43;3.30;;;14.90;99.90;;;;;;5019287;28;20104;-83
2021/08/24 07:26:07;;;;;;;6.25;3.22;;;14.90;99.90;;;;;;5018084;28;20036;-82
2021/08/24 07:28:33;;;;;;;5.90;3.38;;;14.80;99.90;;;;;;5008825;28;20450;-82
2021/08/24 07:30:58;;;;;;;7.65;3.25;;;14.70;99.90;;;;;;5013245;28;20034;-83
2021/08/24 07:33:24;;;;;;;6.40;3.22;;;14.70;99.90;;;;;;5024482;28;20033;-83
2021/08/24 07:35:50;;;;;;;8.13;3.28;;;14.80;99.90;;;;;;5026981;28;20021;-83
2021/08/24 07:38:17;;;;;;;6.20;3.10;;;14.70;99.90;;;;;;5023037;28;20872;-83
2021/08/24 07:40:44;;;;;;;8.30;3.05;;;14.70;99.90;;;;;;5019942;28;20097;-83
2021/08/24 07:43:10;;;;;;;8.18;3.10;;;14.70;99.90;;;;;;5018245;28;20041;-83
2021/08/24 07:45:36;;;;;;;5.93;3.00;;;14.60;99.90;;;;;;5017879;28;20040;-83
2021/08/24 07:48:02;;;;;;;5.95;3.00;;;14.60;99.90;;;;;;5018899;28;20018;-83
2021/08/24 07:50:28;;;;;;;7.32;3.28;;;14.60;99.90;;;;;;5024370;28;20089;-82
2021/08/24 07:52:53;;;;;;;7.50;3.10;;;14.70;99.90;;;;;;5019285;28;20120;-83
2021/08/24 07:55:20;;;;;;;5.82;3.08;;;14.80;99.90;;;;;;5018298;28;20038;-82
2021/08/24 07:57:45;;;;;;;4.90;2.95;;;15.00;99.90;;;;;;5025896;28;20032;-82
2021/08/24 08:00:11;;;;;;;7.72;3.08;;;15.10;99.90;;;;;;5028630;28;20034;-83
2021/08/24 08:02:37;;;;;;;5.45;2.90;;;15.20;99.90;;;;;;5010673;28;20038;-83
2021/08/24 08:05:03;;;;;;;8.73;3.10;;;15.30;99.90;;;;;;5036854;28;20029;-83
2021/08/24 08:07:29;;;;;;;5.63;2.70;;;15.30;99.90;;;;;;5042565;28;20057;-83
2021/08/24 08:09:54;;;;;;;6.05;3.22;;;15.30;99.90;;;;;;5035235;28;20022;-83
2021/08/24 08:12:20;;;;;;;5.90;2.50;;;15.30;99.90;;;;;;5019201;28;20499;-83
2021/08/24 08:14:46;;;;;;;4.78;2.83;;;15.30;99.90;;;;;;5017483;28;20442;-83
2021/08/24 08:17:12;;;;;;;6.22;3.25;;;15.40;99.90;;;;;;5017352;28;20101;-83
2021/08/24 08:19:39;;;;;;;8.13;3.00;;;15.50;99.90;;;;;;5003007;28;20077;-82
2021/08/24 08:22:05;;;;;;;6.38;2.70;;;15.60;99.90;;;;;;4997751;28;20446;-83
2021/08/24 08:24:31;;;;;;;5.50;2.78;;;15.70;99.90;;;;;;4995398;28;20045;-82
2021/08/24 08:26:57;;;;;;;7.18;3.10;;;15.70;99.90;;;;;;4997179;28;20101;-83
2021/08/24 08:29:23;;;;;;;8.57;2.78;;;15.60;99.90;;;;;;5014089;28;20079;-83
2021/08/24 08:31:49;;;;;;;6.10;2.85;;;15.60;99.90;;;;;;5015989;28;20410;-83
2021/08/24 08:34:16;;;;;;;5.82;3.40;;;15.60;99.90;;;;;;5014155;28;20022;-82
2021/08/24 08:36:44;;;;;;;6.07;3.10;;;15.80;99.90;;;;;;5015659;28;20093;-82
2021/08/24 08:39:09;;;;;;;4.97;2.75;;;15.80;99.90;;;;;;5014234;28;20030;-83
2021/08/24 08:42:15;;;;;;;6.68;2.88;;;16.00;99.90;;;;;;5016014;28;20028;-83
2021/08/24 08:44:50;;;;;;;5.63;3.15;;;16.10;99.90;;;;;;5012957;28;20049;-82
2021/08/24 08:47:43;;;;;;;6.30;2.88;;;16.10;99.90;;;;;;5015479;28;20026;-82
2021/08/24 08:50:33;;;;;;;5.63;3.10;;;16.10;99.90;;;;;;5015565;28;20022;-83
2021/08/24 08:53:08;;;;;;;6.20;3.17;;;16.00;99.90;;;;;;4998076;28;20014;-83
2021/08/24 08:55:53;;;;;;;8.90;3.40;;;16.00;99.90;;;;;;5015556;28;20386;-83
2021/08/24 08:58:40;;;;;;;6.43;3.30;;;15.90;99.90;;;;;;5014868;28;20030;-83
2021/08/24 09:01:29;;;;;;;5.40;2.90;;;16.00;99.90;;;;;;5015734;28;20026;-82
2021/08/24 09:04:08;;;;;;;9.18;3.47;;;15.80;99.90;;;;;;5022049;28;20614;-81
2021/08/24 09:06:35;;;;;;;7.15;3.50;;;15.80;99.90;;;;;;5034462;28;20076;-82
2021/08/24 09:09:02;;;;;;;5.65;3.13;;;15.80;99.90;;;;;;5032772;28;20060;-82
2021/08/24 09:11:33;;;;;;;7.35;3.38;;;15.80;99.90;;;;;;4998343;28;20053;-82
2021/08/24 09:14:04;;;;;;;6.65;3.00;;;15.80;99.90;;;;;;4994199;28;20037;-82
2021/08/24 09:16:36;;;;;;;5.43;3.00;;;15.70;99.90;;;;;;4976723;28;20080;-82
2021/08/24 09:19:14;;;;;;;7.50;3.00;;;15.70;99.90;;;;;;4993034;28;20398;-82
2021/08/24 09:21:45;;;;;;;6.80;2.75;;;15.80;99.90;;;;;;4993841;28;20030;-83
2021/08/24 09:24:18;;;;;;;4.55;2.33;;;15.80;99.90;;;;;;4993945;28;20030;-82
2021/08/24 09:26:55;;;;;;;5.10;2.35;;;15.80;99.90;;;;;;4993630;28;20038;-82
2021/08/24 09:29:26;;;;;;;5.43;2.80;;;15.80;99.90;;;;;;5000496;28;20051;-82
2021/08/24 09:31:53;;;;;;;6.18;2.60;;;15.80;99.90;;;;;;5013227;28;20438;-82
2021/08/24 09:34:25;;;;;;;5.40;2.72;;;15.90;99.90;;;;;;5013947;28;20133;-82
2021/08/24 09:36:51;;;;;;;4.82;2.55;;;15.90;99.90;;;;;;5014959;28;20033;-82
2021/08/24 09:39:48;;;;;;;6.68;2.60;;;15.80;99.90;;;;;;5014355;28;20041;-82
2021/08/24 09:42:15;;;;;;;4.80;2.30;;;15.90;99.90;;;;;;5013923;28;20017;-82
2021/08/24 09:44:40;;;;;;;5.30;2.70;;;16.00;99.90;;;;;;5011932;28;20026;-81
2021/08/24 09:47:32;;;;;;;4.03;1.88;;;16.00;99.90;;;;;;5012807;28;20025;-82
2021/08/24 09:50:04;;;;;;;;;;;16.00;99.90;;;;;;4991558;28;20069;-82
2021/08/24 09:52:35;;;;;;;7.40;2.60;;;16.10;99.90;;;;;;4993771;28;19916;-82
2021/08/24 09:55:06;;;;;;;5.28;2.38;;;16.30;99.90;;;;;;5009447;28;20048;-82
2021/08/24 09:57:37;;;;;;;5.25;2.40;;;16.50;99.90;;;;;;5013593;28;20029;-82
2021/08/24 10:00:22;;;;;;;4.60;2.50;;;16.50;99.90;;;;;;5011545;28;20502;-82
2021/08/24 10:02:53;;;;;;;4.97;2.40;;;16.50;99.90;;;;;;5011983;28;20034;-81
2021/08/24 10:05:22;;;;;;;6.57;2.40;;;16.50;99.90;;;;;;5015340;28;20176;-82
2021/08/24 10:07:49;;;;;;;5.25;2.60;;;16.60;99.90;;;;;;5033836;28;20363;-82
2021/08/24 10:10:26;;;;;;;5.00;2.28;;;16.70;99.90;;;;;;5016291;28;20028;-82
2021/08/24 10:12:53;;;;;;;7.28;2.20;;;16.80;99.90;;;;;;4989394;28;20030;-82
2021/08/24 10:15:37;;;;;;;5.25;2.35;;;16.80;99.90;;;;;;4994142;28;20042;-82
2021/08/24 10:18:12;;;;;;;4.78;2.38;;;16.70;99.90;;;;;;4993643;28;20053;-82
2021/08/24 10:20:51;;;;;;;5.25;2.83;;;16.60;99.90;;;;;;5002934;28;20029;-82
2021/08/24 10:23:34;;;;;;;4.47;2.40;;;16.60;99.90;;;;;;4996313;28;20040;-82
2021/08/24 10:26:03;;;;;;;5.78;2.40;;;16.50;99.90;;;;;;5013868;28;20022;-81
2021/08/24 10:28:55;;;;;;;4.60;2.50;;;16.50;99.90;;;;;;5012216;28;20029;-82
2021/08/24 10:31:50;;;;;;;6.10;2.85;;;16.60;99.90;;;;;;5013529;28;20037;-82
2021/08/24 10:34:39;;;;;;;4.35;2.35;;;16.50;99.90;;;;;;5013682;28;20061;-81
2021/08/24 10:37:26;;;;;;;4.22;2.50;;;16.60;99.90;;;;;;5016564;28;20062;-81
2021/08/24 10:39:54;;;;;;;7.13;3.70;;;16.50;99.90;;;;;;5015075;28;20448;-81
2021/08/24 10:42:30;;;;;;;4.45;2.38;;;16.70;99.90;;;;;;5016514;28;20022;-81
2021/08/24 10:44:59;;;;;;;4.30;2.58;;;16.80;99.90;;;;;;5008065;28;20387;-83
2021/08/24 10:47:56;;;;;;;8.27;2.53;;;16.80;99.90;;;;;;4995762;28;20034;-81
2021/08/24 10:50:29;;;;;;;6.82;2.72;;;16.80;99.90;;;;;;4997086;28;20031;-79
2021/08/24 10:53:01;;;;;;;5.30;2.60;;;16.80;99.90;;;;;;4999893;28;20022;-81
2021/08/24 10:55:34;;;;;;;5.18;2.50;;;16.80;99.90;;;;;;4987433;28;20029;-81
2021/08/24 10:58:02;;;;;;;5.18;2.17;;;16.90;99.90;;;;;;4997524;28;20053;-81
2021/08/24 11:00:54;;;;;;;4.53;2.22;;;16.90;99.90;;;;;;4997533;28;20033;-81
2021/08/24 11:03:36;;;;;;;4.85;2.45;;;16.90;99.90;;;;;;5001454;28;20113;-81
2021/08/24 11:06:14;;;;;;;6.00;2.40;;;16.90;99.90;;;;;;5020330;23;20053;-82
2021/08/24 11:08:54;;;;;;;4.32;2.75;;;16.90;99.90;;;;;;5026722;28;20056;-85
2021/08/24 11:11:37;;;;;;;4.60;2.47;;;16.80;99.90;;;;;;5024464;28;20022;-85
2021/08/24 11:14:19;;;;;;;5.05;2.50;;;16.80;99.90;;;;;;5033575;28;20056;-84
2021/08/24 11:17:03;;;;;;;3.78;2.30;;;16.90;99.90;;;;;;5033327;28;20053;-84
2021/08/24 11:19:43;;;;;;;6.13;2.33;;;16.90;99.90;;;;;;5034008;28;20025;-84
2021/08/24 11:22:20;;;;;;;4.18;2.10;;;17.00;99.90;;;;;;5019530;28;20025;-85
2021/08/24 11:25:01;;;;;;;4.15;2.05;;;17.30;99.90;;;;;;5045182;28;20041;-85
2021/08/24 11:27:32;;;;;;;3.05;1.80;;;17.50;99.90;;;;;;5036322;28;20040;-85
2021/08/24 11:30:03;;;;;;;4.00;1.85;;;17.70;99.90;;;;;;5024948;28;20470;-85
2021/08/24 11:32:37;;;;;;;3.70;2.03;;;17.80;99.90;;;;;;5013598;28;20049;-85
2021/08/24 11:35:20;;;;;;;5.32;2.13;;;18.00;99.90;;;;;;5014627;28;20030;-84
2021/08/24 11:37:59;;;;;;;5.05;2.25;;;18.10;99.90;;;;;;5013020;28;20042;-84
2021/08/24 11:40:49;;;;;;;5.07;2.22;;;18.10;99.90;;;;;;5021369;28;20090;-84
2021/08/24 11:43:44;;;;;;;5.68;2.50;;;18.30;99.90;;;;;;5054166;28;20033;-85
2021/08/24 11:46:23;;;;;;;4.07;2.35;;;18.50;99.90;;;;;;5026049;28;20491;-84
2021/08/24 11:49:05;;;;;;;5.35;2.60;;;18.50;99.90;;;;;;5017727;28;20343;-86
2021/08/24 11:51:32;;;;;;;;;;;18.50;99.90;;;;;;5013419;28;20478;-85
2021/08/24 11:54:19;;;;;;;4.63;2.33;;;18.40;99.90;;;;;;5013408;28;19910;-85
2021/08/24 11:57:13;;;;;;;4.13;2.08;;;18.40;99.90;;;;;;5004470;28;20033;-85
2021/08/24 11:59:45;;;;;;;5.28;2.22;;;18.50;99.90;;;;;;4996496;28;20026;-85
2021/08/24 12:02:23;;;;;;;4.10;1.83;;;18.50;99.90;;;;;;5014579;28;20022;-85
2021/08/24 12:04:49;;;;;;;3.20;2.00;;;18.60;99.90;;;;;;5024111;28;20026;-85
2021/08/24 12:07:34;;;;;;;4.88;1.90;;;19.00;99.90;;;;;;5014417;28;20056;-85
2021/08/24 12:10:18;;;;;;;4.88;2.25;;;19.00;99.90;;;;;;5014080;28;20027;-85
2021/08/24 12:12:58;;;;;;;4.40;2.42;;;18.90;99.90;;;;;;4996473;28;20018;-84
2021/08/24 12:15:26;;;;;;;4.88;2.40;;;19.10;99.90;;;;;;5023277;28;20029;-85
2021/08/24 12:18:04;;;;;;;7.47;2.72;;;19.00;99.90;;;;;;5035591;28;20025;-85
2021/08/24 12:20:39;;;;;;;5.05;2.03;;;19.10;99.90;;;;;;5035730;28;20025;-85
2021/08/24 12:23:08;;;;;;;4.55;1.88;;;19.00;99.90;;;;;;5035710;28;20541;-85
2021/08/24 12:25:47;;;;;;;4.20;2.10;;;18.90;99.90;;;;;;5015691;28;20116;-85
2021/08/24 12:28:16;;;;;;;5.00;2.25;;;18.80;99.90;;;;;;5012558;28;20076;-85
2021/08/24 12:30:59;;;;;;;7.65;2.45;;;18.80;99.90;;;;;;4996370;28;20026;-85
2021/08/24 12:33:36;;;;;;;5.07;2.70;;;18.50;99.90;;;;;;4996491;28;20022;-84
2021/08/24 12:36:17;;;;;;;5.72;2.45;;;18.50;99.90;;;;;;4996417;28;20033;-85
2021/08/24 12:38:53;;;;;;;6.75;2.55;;;18.40;99.90;;;;;;4995955;28;20108;-84
2021/08/24 12:41:33;;;;;;;7.45;2.85;;;18.30;99.90;;;;;;5014285;28;20033;-86
2021/08/24 12:44:15;;;;;;;5.57;2.78;;;18.10;99.90;;;;;;5014030;28;20132;-85
2021/08/24 12:47:12;;;;;;;6.05;2.75;;;18.00;99.90;;;;;;4996060;28;20045;-85
2021/08/24 12:49:38;;;;;;;4.60;2.47;;;17.90;99.90;;;;;;5012490;28;20054;-85
2021/08/24 12:52:35;;;;;;;5.70;2.70;;;17.90;99.90;;;;;;5015540;28;20026;-84
2021/08/24 12:55:22;;;;;;;5.43;2.75;;;18.00;99.90;;;;;;5013718;28;20021;-85
2021/08/24 12:57:58;;;;;;;6.38;2.63;;;18.10;99.90;;;;;;5012160;28;20025;-85
2021/08/24 13:00:38;;;;;;;7.20;2.75;;;18.40;99.90;;;;;;5013196;28;20080;-84
2021/08/24 13:03:26;;;;;;;5.78;2.40;;;18.70;99.90;;;;;;5011708;28;20038;-84
2021/08/24 13:06:20;;;;;;;3.95;2.17;;;19.20;99.90;;;;;;5031066;28;20021;-85
2021/08/24 13:08:50;;;;;;;4.32;2.20;;;19.40;99.90;;;;;;5032216;28;20032;-85
2021/08/24 13:11:27;;;;;;;5.38;2.28;;;19.60;99.90;;;;;;5016568;28;20022;-84
2021/08/24 13:14:19;;;;;;;5.07;2.58;;;19.60;99.90;;;;;;5011296;28;20033;-84